AVA9220 SKCL-SKBO
Flight info
| Callsign | AVA9220 |
|---|---|
| Flight time | 0h 32m |
| Altitude | 23000 |
| Route | TULU1K ULQ W1 TOLIM TOLIM4W |
| Aircraft | A320/M-SDE3FGHIRWY/LB1 |
Departure
| Time | 2026-04-23 21:35 |
|---|---|
| Airport | Alfonso Bonilla Aragon International Airport (SKCL) |
Arrival
| Time | 2026-04-23 22:07 |
|---|---|
| Airport | El Dorado International Airport (SKBO) |
| Time | Latitude | Longitude | Altitude | Speed | Heading |
|---|---|---|---|---|---|
| 2026-04-23 21:13 | 3.53855 | -76.38777 | 3162 ft | 0 kts | 146° |
| 2026-04-23 21:28 | 3.53858 | -76.38779 | 3162 ft | 2 kts | 144° |
| 2026-04-23 21:28 | 3.53870 | -76.38789 | 3162 ft | 2 kts | 129° |
| 2026-04-23 21:28 | 3.53879 | -76.38803 | 3162 ft | 2 kts | 99° |
| 2026-04-23 21:29 | 3.53879 | -76.38820 | 3162 ft | 2 kts | 64° |
| 2026-04-23 21:29 | 3.53870 | -76.38833 | 3162 ft | 2 kts | 45° |
| 2026-04-23 21:29 | 3.53866 | -76.38837 | 3164 ft | 0 kts | 41° |
| 2026-04-23 21:31 | 3.53867 | -76.38837 | 3164 ft | 1 kts | 41° |
| 2026-04-23 21:31 | 3.53886 | -76.38821 | 3166 ft | 6 kts | 40° |
| 2026-04-23 21:31 | 3.53920 | -76.38769 | 3163 ft | 12 kts | 77° |
| 2026-04-23 21:32 | 3.53894 | -76.38661 | 3163 ft | 17 kts | 140° |
| 2026-04-23 21:32 | 3.53799 | -76.38590 | 3162 ft | 19 kts | 143° |
| 2026-04-23 21:32 | 3.53681 | -76.38503 | 3164 ft | 19 kts | 143° |
| 2026-04-23 21:32 | 3.53581 | -76.38458 | 3162 ft | 18 kts | 183° |
| 2026-04-23 21:33 | 3.53448 | -76.38483 | 3162 ft | 21 kts | 190° |
| 2026-04-23 21:33 | 3.53289 | -76.38511 | 3162 ft | 25 kts | 190° |
| 2026-04-23 21:33 | 3.53106 | -76.38543 | 3162 ft | 28 kts | 190° |
| 2026-04-23 21:33 | 3.53005 | -76.38544 | 3162 ft | 13 kts | 139° |
| 2026-04-23 21:34 | 3.52990 | -76.38446 | 3161 ft | 17 kts | 75° |
| 2026-04-23 21:34 | 3.53088 | -76.38380 | 3160 ft | 12 kts | 6° |
| 2026-04-23 21:34 | 3.53107 | -76.38377 | 3160 ft | 0 kts | 10° |
| 2026-04-23 21:34 | 3.53124 | -76.38374 | 3160 ft | 8 kts | 10° |
| 2026-04-23 21:35 | 3.53333 | -76.38339 | 3161 ft | 66 kts | 9° |
| 2026-04-23 21:35 | 3.54030 | -76.38218 | 3166 ft | 134 kts | 10° |
| 2026-04-23 21:35 | 3.55131 | -76.38026 | 3239 ft | 180 kts | 8° |
| 2026-04-23 21:35 | 3.56388 | -76.37793 | 3845 ft | 186 kts | 8° |
| 2026-04-23 21:36 | 3.59040 | -76.37364 | 4785 ft | 208 kts | 7° |
| 2026-04-23 21:36 | 3.60533 | -76.37115 | 5133 ft | 225 kts | 9° |
| 2026-04-23 21:36 | 3.62081 | -76.36847 | 5930 ft | 225 kts | 10° |
| 2026-04-23 21:37 | 3.63623 | -76.36565 | 6754 ft | 225 kts | 10° |
| 2026-04-23 21:37 | 3.65155 | -76.36207 | 7347 ft | 238 kts | 15° |
| 2026-04-23 21:37 | 3.66817 | -76.35696 | 7727 ft | 262 kts | 18° |
| 2026-04-23 21:37 | 3.68616 | -76.35099 | 8180 ft | 283 kts | 18° |
| 2026-04-23 21:38 | 3.70518 | -76.34470 | 8922 ft | 291 kts | 18° |
| 2026-04-23 21:38 | 3.72466 | -76.33840 | 9719 ft | 298 kts | 17° |
| 2026-04-23 21:38 | 3.74472 | -76.33201 | 10313 ft | 312 kts | 17° |
| 2026-04-23 21:38 | 3.76621 | -76.32523 | 10597 ft | 336 kts | 17° |
| 2026-04-23 21:39 | 3.78931 | -76.31799 | 10836 ft | 359 kts | 17° |
| 2026-04-23 21:39 | 3.81370 | -76.31040 | 11230 ft | 374 kts | 17° |
| 2026-04-23 21:39 | 3.83877 | -76.30261 | 11863 ft | 380 kts | 17° |
| 2026-04-23 21:39 | 3.86422 | -76.29468 | 12596 ft | 384 kts | 16° |
| 2026-04-23 21:40 | 3.88986 | -76.28667 | 13310 ft | 388 kts | 16° |
| 2026-04-23 21:40 | 3.91578 | -76.27855 | 13994 ft | 392 kts | 16° |
| 2026-04-23 21:40 | 3.94196 | -76.27036 | 14575 ft | 396 kts | 16° |
| 2026-04-23 21:40 | 3.96843 | -76.26208 | 15171 ft | 400 kts | 17° |
| 2026-04-23 21:41 | 3.99510 | -76.25372 | 15745 ft | 404 kts | 17° |
| 2026-04-23 21:41 | 4.02198 | -76.24531 | 16325 ft | 407 kts | 17° |
| 2026-04-23 21:41 | 4.04839 | -76.23471 | 16872 ft | 412 kts | 27° |
| 2026-04-23 21:41 | 4.07257 | -76.21897 | 17414 ft | 416 kts | 39° |
| 2026-04-23 21:42 | 4.09331 | -76.19864 | 17977 ft | 420 kts | 50° |
| 2026-04-23 21:42 | 4.10981 | -76.17446 | 18482 ft | 423 kts | 62° |
| 2026-04-23 21:42 | 4.12158 | -76.14749 | 18950 ft | 425 kts | 69° |
| 2026-04-23 21:42 | 4.13210 | -76.12007 | 19396 ft | 428 kts | 69° |
| 2026-04-23 21:43 | 4.14299 | -76.09182 | 19858 ft | 432 kts | 69° |
| 2026-04-23 21:43 | 4.15384 | -76.06368 | 20313 ft | 434 kts | 69° |
| 2026-04-23 21:43 | 4.16478 | -76.03541 | 20771 ft | 437 kts | 69° |
| 2026-04-23 21:43 | 4.17566 | -76.00735 | 21235 ft | 439 kts | 69° |
| 2026-04-23 21:44 | 4.18673 | -75.97880 | 21706 ft | 441 kts | 69° |
| 2026-04-23 21:44 | 4.19784 | -75.95008 | 22204 ft | 443 kts | 69° |
| 2026-04-23 21:44 | 4.20895 | -75.92126 | 22699 ft | 445 kts | 69° |
| 2026-04-23 21:44 | 4.22013 | -75.89231 | 22980 ft | 446 kts | 69° |
| 2026-04-23 21:45 | 4.23150 | -75.86324 | 23049 ft | 453 kts | 68° |
| 2026-04-23 21:45 | 4.24326 | -75.83350 | 23050 ft | 465 kts | 68° |
| 2026-04-23 21:45 | 4.25525 | -75.80324 | 23046 ft | 469 kts | 68° |
| 2026-04-23 21:45 | 4.26731 | -75.77280 | 23049 ft | 470 kts | 68° |
| 2026-04-23 21:46 | 4.27936 | -75.74229 | 23049 ft | 471 kts | 68° |
| 2026-04-23 21:46 | 4.29140 | -75.71173 | 23044 ft | 471 kts | 68° |
| 2026-04-23 21:46 | 4.30342 | -75.68118 | 23045 ft | 472 kts | 68° |
| 2026-04-23 21:46 | 4.31544 | -75.65062 | 23046 ft | 471 kts | 67° |
| 2026-04-23 21:47 | 4.32749 | -75.61998 | 23046 ft | 472 kts | 68° |
| 2026-04-23 21:47 | 4.33949 | -75.58947 | 23048 ft | 471 kts | 68° |
| 2026-04-23 21:47 | 4.35151 | -75.55890 | 23048 ft | 472 kts | 68° |
| 2026-04-23 21:47 | 4.36350 | -75.52833 | 23051 ft | 471 kts | 68° |
| 2026-04-23 21:48 | 4.37588 | -75.49786 | 23050 ft | 471 kts | 64° |
| 2026-04-23 21:48 | 4.39109 | -75.46932 | 23033 ft | 470 kts | 60° |
| 2026-04-23 21:48 | 4.40705 | -75.44074 | 23014 ft | 470 kts | 60° |
| 2026-04-23 21:48 | 4.42298 | -75.41212 | 23006 ft | 470 kts | 60° |
| 2026-04-23 21:49 | 4.43888 | -75.38349 | 23007 ft | 471 kts | 60° |
| 2026-04-23 21:49 | 4.45478 | -75.35479 | 22989 ft | 471 kts | 60° |
| 2026-04-23 21:49 | 4.47069 | -75.32612 | 22955 ft | 471 kts | 60° |
| 2026-04-23 21:49 | 4.48664 | -75.29740 | 22953 ft | 472 kts | 60° |
| 2026-04-23 21:50 | 4.50263 | -75.26866 | 22948 ft | 472 kts | 60° |
| 2026-04-23 21:50 | 4.51865 | -75.23987 | 22943 ft | 473 kts | 60° |
| 2026-04-23 21:50 | 4.53463 | -75.21110 | 22932 ft | 473 kts | 60° |
| 2026-04-23 21:50 | 4.55064 | -75.18232 | 22934 ft | 473 kts | 60° |
| 2026-04-23 21:51 | 4.56663 | -75.15356 | 22934 ft | 473 kts | 60° |
| 2026-04-23 21:51 | 4.58267 | -75.12473 | 22948 ft | 473 kts | 60° |
| 2026-04-23 21:51 | 4.59867 | -75.09592 | 22947 ft | 473 kts | 60° |
| 2026-04-23 21:51 | 4.61466 | -75.06712 | 22949 ft | 473 kts | 60° |
| 2026-04-23 21:52 | 4.63066 | -75.03833 | 22932 ft | 473 kts | 60° |
| 2026-04-23 21:52 | 4.64665 | -75.00955 | 22936 ft | 472 kts | 60° |
| 2026-04-23 21:52 | 4.66231 | -74.98131 | 22941 ft | 455 kts | 60° |
| 2026-04-23 21:52 | 4.67751 | -74.95390 | 22945 ft | 449 kts | 60° |
| 2026-04-23 21:53 | 4.69269 | -74.92657 | 22949 ft | 447 kts | 60° |
| 2026-04-23 21:53 | 4.70781 | -74.89936 | 22949 ft | 446 kts | 60° |
| 2026-04-23 21:53 | 4.72292 | -74.87217 | 22960 ft | 446 kts | 60° |
| 2026-04-23 21:53 | 4.73294 | -74.85416 | 22960 ft | 446 kts | 60° |
| 2026-04-23 21:54 | 4.74873 | -74.82739 | 22961 ft | 445 kts | 52° |
| 2026-04-23 21:54 | 4.77920 | -74.80148 | 22937 ft | 424 kts | 26° |
| 2026-04-23 21:54 | 4.80478 | -74.78789 | 22800 ft | 409 kts | 33° |
| 2026-04-23 21:54 | 4.82463 | -74.76812 | 22562 ft | 400 kts | 56° |
| 2026-04-23 21:55 | 4.83478 | -74.74256 | 22306 ft | 397 kts | 81° |
| 2026-04-23 21:55 | 4.83619 | -74.72425 | 22148 ft | 396 kts | 88° |
| 2026-04-23 21:55 | 4.83829 | -74.69674 | 21900 ft | 396 kts | 81° |
| 2026-04-23 21:55 | 4.84335 | -74.66970 | 21248 ft | 398 kts | 76° |
| 2026-04-23 21:56 | 4.85059 | -74.64296 | 20862 ft | 393 kts | 72° |
| 2026-04-23 21:56 | 4.85861 | -74.61686 | 20399 ft | 389 kts | 72° |
| 2026-04-23 21:56 | 4.86657 | -74.59118 | 19633 ft | 384 kts | 73° |
| 2026-04-23 21:56 | 4.87413 | -74.56564 | 18846 ft | 380 kts | 74° |
| 2026-04-23 21:57 | 4.88118 | -74.54018 | 18102 ft | 375 kts | 75° |
| 2026-04-23 21:57 | 4.88774 | -74.51502 | 17397 ft | 368 kts | 76° |
| 2026-04-23 21:57 | 4.89380 | -74.49094 | 17288 ft | 345 kts | 76° |
| 2026-04-23 21:57 | 4.89947 | -74.46828 | 17104 ft | 327 kts | 76° |
| 2026-04-23 21:58 | 4.90333 | -74.44619 | 16660 ft | 318 kts | 91° |
| 2026-04-23 21:58 | 4.89941 | -74.42492 | 16520 ft | 308 kts | 113° |
| 2026-04-23 21:58 | 4.88844 | -74.40662 | 16188 ft | 308 kts | 134° |
| 2026-04-23 21:58 | 4.87153 | -74.39399 | 15685 ft | 302 kts | 154° |
| 2026-04-23 21:59 | 4.85285 | -74.38453 | 15225 ft | 299 kts | 154° |
| 2026-04-23 21:59 | 4.83441 | -74.37511 | 14760 ft | 297 kts | 154° |
| 2026-04-23 21:59 | 4.81605 | -74.36568 | 14307 ft | 295 kts | 154° |
| 2026-04-23 22:00 | 4.78010 | -74.34716 | 13659 ft | 279 kts | 154° |
| 2026-04-23 22:00 | 4.76308 | -74.33836 | 13694 ft | 274 kts | 154° |
| 2026-04-23 22:00 | 4.74606 | -74.32957 | 13706 ft | 275 kts | 154° |
| 2026-04-23 22:00 | 4.72905 | -74.32077 | 13713 ft | 275 kts | 153° |
| 2026-04-23 22:01 | 4.71234 | -74.31210 | 13728 ft | 272 kts | 154° |
| 2026-04-23 22:01 | 4.69637 | -74.30262 | 13642 ft | 263 kts | 143° |
| 2026-04-23 22:01 | 4.68329 | -74.29016 | 13540 ft | 257 kts | 129° |
| 2026-04-23 22:01 | 4.67222 | -74.27623 | 13291 ft | 255 kts | 129° |
| 2026-04-23 22:02 | 4.66126 | -74.26261 | 13043 ft | 247 kts | 130° |
| 2026-04-23 22:02 | 4.65064 | -74.24947 | 12829 ft | 237 kts | 130° |
| 2026-04-23 22:02 | 4.64039 | -74.23682 | 12627 ft | 232 kts | 130° |
| 2026-04-23 22:02 | 4.63034 | -74.22423 | 12421 ft | 230 kts | 126° |
| 2026-04-23 22:03 | 4.62231 | -74.21048 | 12154 ft | 227 kts | 115° |
| 2026-04-23 22:03 | 4.61709 | -74.19566 | 11846 ft | 225 kts | 104° |
| 2026-04-23 22:03 | 4.61357 | -74.18053 | 11556 ft | 221 kts | 104° |
| 2026-04-23 22:03 | 4.60968 | -74.16569 | 11263 ft | 218 kts | 105° |
| 2026-04-23 22:04 | 4.60580 | -74.15137 | 10991 ft | 206 kts | 105° |
| 2026-04-23 22:04 | 4.60429 | -74.13758 | 10726 ft | 195 kts | 85° |
| 2026-04-23 22:04 | 4.60751 | -74.12487 | 10493 ft | 182 kts | 64° |
| 2026-04-23 22:04 | 4.61423 | -74.11475 | 10251 ft | 170 kts | 46° |
| 2026-04-23 22:05 | 4.62333 | -74.10762 | 10018 ft | 164 kts | 27° |
| 2026-04-23 22:05 | 4.63390 | -74.10362 | 9801 ft | 161 kts | 10° |
| 2026-04-23 22:05 | 4.64495 | -74.10290 | 9611 ft | 159 kts | 352° |
| 2026-04-23 22:05 | 4.65561 | -74.10546 | 9390 ft | 158 kts | 336° |
| 2026-04-23 22:06 | 4.66500 | -74.11098 | 9166 ft | 156 kts | 319° |
| 2026-04-23 22:06 | 4.67244 | -74.11869 | 8982 ft | 153 kts | 304° |
| 2026-04-23 22:06 | 4.67879 | -74.12728 | 8787 ft | 154 kts | 304° |
| 2026-04-23 22:06 | 4.68533 | -74.13580 | 8569 ft | 153 kts | 308° |
| 2026-04-23 22:07 | 4.69166 | -74.14429 | 8384 ft | 150 kts | 308° |
| 2026-04-23 22:07 | 4.69725 | -74.15165 | 8366 ft | 108 kts | 307° |
| 2026-04-23 22:07 | 4.70077 | -74.15629 | 8364 ft | 59 kts | 307° |
| 2026-04-23 22:07 | 4.70233 | -74.15836 | 8363 ft | 28 kts | 307° |
| 2026-04-23 22:08 | 4.70353 | -74.15985 | 8365 ft | 16 kts | 330° |
| 2026-04-23 22:08 | 4.70403 | -74.15971 | 8364 ft | 11 kts | 30° |
| 2026-04-23 22:08 | 4.70490 | -74.15908 | 8365 ft | 18 kts | 36° |
| 2026-04-23 22:08 | 4.70587 | -74.15831 | 8366 ft | 14 kts | 62° |
| 2026-04-23 22:09 | 4.70548 | -74.15741 | 8366 ft | 17 kts | 127° |
| 2026-04-23 22:09 | 4.70468 | -74.15640 | 8366 ft | 21 kts | 129° |
| 2026-04-23 22:09 | 4.70369 | -74.15517 | 8366 ft | 24 kts | 128° |
| 2026-04-23 22:09 | 4.70258 | -74.15373 | 8366 ft | 28 kts | 127° |
| 2026-04-23 22:10 | 4.70140 | -74.15212 | 8366 ft | 18 kts | 126° |
| 2026-04-23 22:10 | 4.70086 | -74.15140 | 8366 ft | 9 kts | 129° |
| 2026-04-23 22:10 | 4.70072 | -74.15123 | 8366 ft | 3 kts | 129° |
| 2026-04-23 22:10 | 4.70062 | -74.15111 | 8366 ft | 0 kts | 129° |
| 2026-04-23 22:12 | 4.70042 | -74.15087 | 8366 ft | 14 kts | 129° |
| 2026-04-23 22:12 | 4.69949 | -74.14966 | 8366 ft | 25 kts | 125° |
| 2026-04-23 22:12 | 4.69869 | -74.14848 | 8366 ft | 17 kts | 100° |
| 2026-04-23 22:13 | 4.69875 | -74.14744 | 8366 ft | 17 kts | 122° |
| 2026-04-23 22:13 | 4.69810 | -74.14658 | 8366 ft | 17 kts | 129° |
| 2026-04-23 22:13 | 4.69764 | -74.14585 | 8366 ft | 8 kts | 80° |
| 2026-04-23 22:13 | 4.69794 | -74.14557 | 8366 ft | 3 kts | 37° |
| 2026-04-23 22:14 | 4.69799 | -74.14553 | 8366 ft | 0 kts | 37° |